Time;durP1;ratioP1;P1;durP2;ratioP2;P2;SDS_P1;SDS_P2;PMS_P1;PMS_P2;Temp;Humidity;BMP_temperature;BMP_pressure;BME280_temperature;BME280_humidity;BME280_pressure;Samples;Min_cycle;Max_cycle;Signal;HPM_P1;HPM_P2
2023/08/13 00:01:23;;;;;;;;;7.33;7.33;;;;;;;;5121080;27;45391;-73
2023/08/13 00:03:49;;;;;;;;;8.00;8.00;;;;;;;;5120803;27;45389;-73
2023/08/13 00:06:14;;;;;;;;;8.67;7.00;;;;;;;;5121057;27;45324;-73
2023/08/13 00:08:39;;;;;;;;;6.00;6.00;;;;;;;;5120069;27;45346;-73
2023/08/13 00:11:09;;;;;;;;;8.00;7.00;;;;;;;;5120858;27;45419;-72
2023/08/13 00:13:34;;;;;;;;;8.67;7.67;;;;;;;;5121000;27;45294;-74
2023/08/13 00:15:59;;;;;;;;;9.00;9.00;;;;;;;;5102524;27;45780;-73
2023/08/13 00:18:26;;;;;;;;;9.67;8.33;;;;;;;;5120814;27;45275;-73
2023/08/13 00:20:51;;;;;;;;;8.67;7.00;;;;;;;;5120589;27;45334;-73
2023/08/13 00:23:16;;;;;;;;;8.00;7.33;;;;;;;;5120581;27;45385;-73
2023/08/13 00:25:41;;;;;;;;;7.67;5.33;;;;;;;;5120780;27;45314;-72
2023/08/13 00:28:07;;;;;;;;;5.67;5.67;;;;;;;;5101570;27;47224;-73
2023/08/13 00:30:32;;;;;;;;;10.00;8.00;;;;;;;;5139671;27;45341;-73
2023/08/13 00:32:57;;;;;;;;;9.33;8.33;;;;;;;;5141392;27;45325;-73
2023/08/13 00:35:22;;;;;;;;;9.33;8.67;;;;;;;;5141295;27;45320;-73
2023/08/13 00:37:47;;;;;;;;;6.33;6.33;;;;;;;;5141427;27;45447;-73
2023/08/13 00:40:12;;;;;;;;;7.67;7.00;;;;;;;;5122503;27;47008;-73
2023/08/13 00:42:38;;;;;;;;;5.33;5.33;;;;;;;;5140993;27;45275;-73
2023/08/13 00:45:04;;;;;;;;;10.33;7.00;;;;;;;;5141391;27;45470;-74
2023/08/13 00:47:29;;;;;;;;;7.00;7.00;;;;;;;;5141344;27;45527;-73
2023/08/13 00:49:55;;;;;;;;;6.67;4.67;;;;;;;;5122167;27;48249;-73
2023/08/13 00:52:20;;;;;;;;;10.00;9.00;;;;;;;;5140815;27;45345;-73
2023/08/13 00:54:46;;;;;;;;;6.33;6.33;;;;;;;;5141347;27;45363;-73
2023/08/13 00:57:12;;;;;;;;;6.67;6.67;;;;;;;;5104230;27;47417;-73
2023/08/13 00:59:37;;;;;;;;;10.00;8.67;;;;;;;;5101681;27;47041;-73
2023/08/13 01:02:03;;;;;;;;;8.00;6.00;;;;;;;;5120280;27;45256;-73
2023/08/13 01:04:28;;;;;;;;;6.67;6.67;;;;;;;;5120225;27;45267;-73
2023/08/13 01:07:12;;;;;;;;;6.33;6.33;;;;;;;;5120234;27;45413;-73
2023/08/13 01:09:56;;;;;;;;;6.00;6.00;;;;;;;;5120100;27;45528;-73
2023/08/13 01:12:25;;;;;;;;;5.00;5.00;;;;;;;;5120101;27;45300;-72
2023/08/13 01:14:50;;;;;;;;;7.00;7.00;;;;;;;;5120271;27;45192;-73
2023/08/13 01:17:17;;;;;;;;;7.00;6.50;;;;;;;;5120191;27;45310;-73
2023/08/13 01:19:42;;;;;;;;;6.00;6.00;;;;;;;;5121367;27;45305;-73
2023/08/13 01:22:07;;;;;;;;;6.00;6.00;;;;;;;;5123566;27;45316;-73
2023/08/13 01:24:32;;;;;;;;;7.00;6.00;;;;;;;;5105145;27;45252;-73
2023/08/13 01:27:15;;;;;;;;;7.00;7.00;;;;;;;;5123553;27;45314;-73
2023/08/13 01:29:48;;;;;;;;;7.00;6.00;;;;;;;;5135127;27;45314;-73
2023/08/13 01:32:14;;;;;;;;;7.67;6.67;;;;;;;;5144212;27;45272;-73
2023/08/13 01:34:40;;;;;;;;;7.67;6.67;;;;;;;;5125370;27;45214;-73
2023/08/13 01:37:06;;;;;;;;;8.67;7.33;;;;;;;;5143926;27;45379;-72
2023/08/13 01:39:31;;;;;;;;;2.33;2.33;;;;;;;;5125227;27;48300;-73
2023/08/13 01:41:56;;;;;;;;;5.67;5.67;;;;;;;;5143821;27;45259;-73
2023/08/13 01:44:21;;;;;;;;;9.00;8.33;;;;;;;;5144145;27;45552;-73
2023/08/13 01:46:47;;;;;;;;;7.67;7.33;;;;;;;;5143957;27;45133;-73
2023/08/13 01:49:12;;;;;;;;;7.67;7.67;;;;;;;;5125063;27;48387;-73
2023/08/13 01:51:37;;;;;;;;;8.67;7.67;;;;;;;;5143794;27;45214;-74
2023/08/13 01:54:03;;;;;;;;;8.33;7.00;;;;;;;;5125390;27;45367;-73
2023/08/13 01:56:28;;;;;;;;;8.33;7.00;;;;;;;;5143953;27;45235;-73
2023/08/13 01:58:53;;;;;;;;;8.33;7.00;;;;;;;;5143887;27;46299;-73
2023/08/13 02:01:18;;;;;;;;;9.00;8.00;;;;;;;;5143859;27;45434;-73
2023/08/13 02:03:43;;;;;;;;;4.00;4.00;;;;;;;;5143797;27;45676;-73
2023/08/13 02:06:08;;;;;;;;;9.00;7.00;;;;;;;;5143478;27;45417;-73
2023/08/13 02:08:34;;;;;;;;;3.67;3.67;;;;;;;;5143669;27;45300;-73
2023/08/13 02:10:59;;;;;;;;;6.67;6.67;;;;;;;;5124790;27;45246;-73
2023/08/13 02:13:24;;;;;;;;;6.33;6.33;;;;;;;;5143679;27;45533;-73
2023/08/13 02:15:49;;;;;;;;;7.00;6.00;;;;;;;;5143662;27;45300;-73
2023/08/13 02:18:15;;;;;;;;;5.67;5.67;;;;;;;;5143163;27;46347;-73
2023/08/13 02:20:40;;;;;;;;;8.00;7.33;;;;;;;;5104654;27;45326;-73
2023/08/13 02:23:05;;;;;;;;;7.00;6.33;;;;;;;;5104313;27;45478;-73
2023/08/13 02:25:30;;;;;;;;;9.33;7.67;;;;;;;;5122503;27;45294;-73
2023/08/13 02:27:55;;;;;;;;;9.00;9.00;;;;;;;;5122541;27;45415;-73
2023/08/13 02:30:20;;;;;;;;;9.00;9.00;;;;;;;;5139559;27;45336;-73
2023/08/13 02:32:46;;;;;;;;;7.00;7.00;;;;;;;;5143079;27;45357;-72
2023/08/13 02:35:11;;;;;;;;;7.00;7.00;;;;;;;;5143119;27;45243;-73
2023/08/13 02:37:36;;;;;;;;;9.00;7.00;;;;;;;;5142927;27;45966;-73
2023/08/13 02:40:01;;;;;;;;;7.00;5.67;;;;;;;;5124477;27;45427;-73
2023/08/13 02:42:26;;;;;;;;;7.00;6.00;;;;;;;;5142805;27;45375;-73
2023/08/13 02:44:52;;;;;;;;;6.67;6.00;;;;;;;;5124254;27;46066;-73
2023/08/13 02:47:17;;;;;;;;;9.00;9.00;;;;;;;;5124230;27;47239;-72
2023/08/13 02:49:42;;;;;;;;;8.33;7.33;;;;;;;;5142856;27;45327;-72
2023/08/13 02:52:07;;;;;;;;;8.67;8.00;;;;;;;;5142909;27;45215;-73
2023/08/13 02:54:32;;;;;;;;;7.00;7.00;;;;;;;;5143029;27;45289;-73
2023/08/13 02:56:59;;;;;;;;;7.00;7.00;;;;;;;;5142838;27;45232;-73
2023/08/13 02:59:24;;;;;;;;;6.00;6.00;;;;;;;;5124221;27;45313;-73
2023/08/13 03:01:49;;;;;;;;;7.00;7.00;;;;;;;;5143028;27;45261;-73
2023/08/13 03:04:14;;;;;;;;;9.00;7.00;;;;;;;;5142494;27;45566;-72
2023/08/13 03:06:40;;;;;;;;;7.00;6.67;;;;;;;;5142627;27;46111;-73
2023/08/13 03:09:05;;;;;;;;;7.00;7.00;;;;;;;;5142755;27;45152;-73
2023/08/13 03:11:30;;;;;;;;;9.00;6.00;;;;;;;;5142883;27;45259;-73
2023/08/13 03:13:56;;;;;;;;;6.00;6.00;;;;;;;;5142538;27;45309;-73
2023/08/13 03:16:21;;;;;;;;;7.33;7.00;;;;;;;;5142557;27;46293;-73
2023/08/13 03:18:46;;;;;;;;;6.00;6.00;;;;;;;;5142379;27;45345;-73
2023/08/13 03:21:11;;;;;;;;;8.00;7.00;;;;;;;;5142616;27;45218;-73
2023/08/13 03:23:36;;;;;;;;;6.00;6.00;;;;;;;;5142474;27;45324;-72
2023/08/13 03:26:03;;;;;;;;;6.00;6.00;;;;;;;;5123461;27;48235;-73
2023/08/13 03:28:28;;;;;;;;;7.67;6.00;;;;;;;;5140772;27;45244;-73
2023/08/13 03:31:00;;;;;;;;;8.00;6.00;;;;;;;;5121693;27;45402;-73
2023/08/13 03:33:25;;;;;;;;;6.00;6.00;;;;;;;;5102839;27;46322;-73
2023/08/13 03:35:50;;;;;;;;;7.67;5.00;;;;;;;;5121337;27;45432;-72
2023/08/13 03:38:15;;;;;;;;;7.67;7.67;;;;;;;;5102899;27;45229;-73
2023/08/13 03:40:41;;;;;;;;;7.00;6.00;;;;;;;;5121263;27;45392;-73
2023/08/13 03:43:06;;;;;;;;;6.67;6.00;;;;;;;;5121353;27;45307;-72
2023/08/13 03:45:31;;;;;;;;;5.33;5.33;;;;;;;;5121345;27;45295;-73
2023/08/13 03:47:56;;;;;;;;;6.00;6.00;;;;;;;;5121383;27;45361;-73
2023/08/13 03:50:21;;;;;;;;;8.67;8.00;;;;;;;;5121093;27;45230;-72
2023/08/13 03:52:47;;;;;;;;;6.67;6.67;;;;;;;;5120998;27;45460;-72
2023/08/13 03:55:12;;;;;;;;;8.33;7.00;;;;;;;;5102661;27;48090;-73
2023/08/13 03:57:37;;;;;;;;;11.33;9.33;;;;;;;;5121154;27;45341;-72
2023/08/13 04:00:02;;;;;;;;;9.33;7.33;;;;;;;;5121438;27;45280;-73
2023/08/13 04:02:31;;;;;;;;;7.67;7.00;;;;;;;;5121114;27;45431;-73
2023/08/13 04:04:57;;;;;;;;;7.00;6.00;;;;;;;;5102172;27;47435;-72
2023/08/13 04:07:22;;;;;;;;;7.33;7.33;;;;;;;;5120974;27;45294;-73
2023/08/13 04:09:47;;;;;;;;;7.00;6.67;;;;;;;;5121168;27;45568;-73
2023/08/13 04:12:12;;;;;;;;;7.00;7.00;;;;;;;;5102298;27;46343;-73
2023/08/13 04:14:37;;;;;;;;;6.33;6.00;;;;;;;;5120905;27;46617;-72
2023/08/13 04:17:03;;;;;;;;;6.33;6.33;;;;;;;;5102368;27;45332;-73
2023/08/13 04:19:29;;;;;;;;;6.00;6.00;;;;;;;;5120787;27;45299;-73
2023/08/13 04:21:54;;;;;;;;;6.00;6.00;;;;;;;;5085110;27;46059;-73
2023/08/13 04:24:19;;;;;;;;;7.33;7.33;;;;;;;;5120695;27;46333;-73
2023/08/13 04:26:44;;;;;;;;;8.33;7.00;;;;;;;;5120363;27;45338;-73
2023/08/13 04:29:09;;;;;;;;;6.33;5.33;;;;;;;;5127752;27;45603;-73
2023/08/13 04:31:34;;;;;;;;;6.00;5.00;;;;;;;;5141143;27;45320;-72
2023/08/13 04:34:00;;;;;;;;;4.00;4.00;;;;;;;;5141179;27;45214;-74
2023/08/13 04:36:25;;;;;;;;;6.00;6.00;;;;;;;;5141424;27;45451;-72
2023/08/13 04:38:50;;;;;;;;;4.67;4.67;;;;;;;;5141543;27;45262;-73
2023/08/13 04:41:15;;;;;;;;;5.00;5.00;;;;;;;;5122453;27;46182;-72
2023/08/13 04:43:40;;;;;;;;;7.00;7.00;;;;;;;;5141359;27;45404;-73
2023/08/13 04:46:05;;;;;;;;;5.33;5.33;;;;;;;;5122288;27;45883;-73
2023/08/13 04:48:47;;;;;;;;;7.00;6.00;;;;;;;;5141226;27;45263;-72
2023/08/13 04:51:12;;;;;;;;;7.33;5.00;;;;;;;;5140896;27;46183;-73
2023/08/13 04:53:37;;;;;;;;;7.00;7.00;;;;;;;;5122434;27;46914;-72
2023/08/13 04:56:04;;;;;;;;;4.67;4.67;;;;;;;;5144857;27;45321;-73
2023/08/13 04:58:29;;;;;;;;;6.67;6.33;;;;;;;;5130183;27;45408;-73
2023/08/13 05:00:54;;;;;;;;;6.33;4.67;;;;;;;;5112162;27;45256;-73
2023/08/13 05:03:19;;;;;;;;;5.67;5.00;;;;;;;;5110789;27;45393;-73
2023/08/13 05:05:44;;;;;;;;;6.00;5.00;;;;;;;;5103373;27;46503;-73
2023/08/13 05:08:10;;;;;;;;;7.00;7.00;;;;;;;;5103452;27;45343;-73
2023/08/13 05:10:35;;;;;;;;;9.00;7.33;;;;;;;;5084918;27;46034;-73
2023/08/13 05:13:01;;;;;;;;;8.00;6.67;;;;;;;;5084588;27;47469;-73
2023/08/13 05:15:26;;;;;;;;;6.67;6.67;;;;;;;;5103047;27;45325;-72
2023/08/13 05:17:51;;;;;;;;;6.00;5.33;;;;;;;;5103456;27;45263;-73
2023/08/13 05:20:16;;;;;;;;;6.00;5.33;;;;;;;;5102781;27;45247;-72
2023/08/13 05:22:42;;;;;;;;;4.00;4.00;;;;;;;;5102854;27;46294;-74
2023/08/13 05:25:07;;;;;;;;;8.67;6.00;;;;;;;;5084581;27;45468;-73
2023/08/13 05:27:32;;;;;;;;;9.00;6.00;;;;;;;;5103163;27;45315;-72
2023/08/13 05:29:57;;;;;;;;;6.33;6.33;;;;;;;;5131437;27;45414;-73
2023/08/13 05:32:24;;;;;;;;;7.67;7.67;;;;;;;;5125475;27;48538;-73
2023/08/13 05:34:49;;;;;;;;;7.33;7.33;;;;;;;;5143981;27;45513;-72
2023/08/13 05:37:14;;;;;;;;;5.33;5.33;;;;;;;;5125540;27;45308;-73
2023/08/13 05:39:40;;;;;;;;;6.33;5.00;;;;;;;;5144143;27;45340;-73
2023/08/13 05:42:05;;;;;;;;;3.33;3.33;;;;;;;;5143935;27;45412;-72
2023/08/13 05:44:30;;;;;;;;;5.33;4.33;;;;;;;;5144051;27;45234;-73
2023/08/13 05:46:55;;;;;;;;;6.67;4.67;;;;;;;;5144254;27;45446;-74
2023/08/13 05:49:21;;;;;;;;;6.00;5.00;;;;;;;;5125279;27;46170;-73
2023/08/13 05:51:48;;;;;;;;;6.00;4.33;;;;;;;;5143753;27;45332;-73
2023/08/13 05:54:13;;;;;;;;;3.33;3.33;;;;;;;;5144017;27;45316;-73
2023/08/13 05:56:38;;;;;;;;;8.00;6.00;;;;;;;;5144133;27;45271;-73
2023/08/13 05:59:04;;;;;;;;;5.33;5.33;;;;;;;;5125227;27;46045;-73
2023/08/13 06:01:29;;;;;;;;;4.33;4.33;;;;;;;;5143853;27;46247;-72
2023/08/13 06:03:54;;;;;;;;;4.00;4.00;;;;;;;;5125062;27;45868;-72
2023/08/13 06:06:20;;;;;;;;;6.00;4.33;;;;;;;;5142531;27;45202;-74
2023/08/13 06:08:45;;;;;;;;;6.00;6.00;;;;;;;;5143591;27;45323;-73
2023/08/13 06:11:11;;;;;;;;;8.00;6.00;;;;;;;;5143631;27;45305;-73
2023/08/13 06:13:38;;;;;;;;;6.67;6.00;;;;;;;;5143646;27;45324;-73
2023/08/13 06:16:04;;;;;;;;;5.67;5.67;;;;;;;;5143641;27;45332;-73
2023/08/13 06:18:29;;;;;;;;;7.67;5.33;;;;;;;;5124635;27;45412;-73
2023/08/13 06:20:55;;;;;;;;;6.00;4.67;;;;;;;;5143348;27;45874;-73
2023/08/13 06:23:20;;;;;;;;;7.00;5.00;;;;;;;;5143504;27;45270;-73
2023/08/13 06:25:45;;;;;;;;;5.00;5.00;;;;;;;;5143651;27;45280;-74
2023/08/13 06:28:11;;;;;;;;;7.00;6.00;;;;;;;;5143364;27;45282;-72
2023/08/13 06:30:36;;;;;;;;;6.00;5.00;;;;;;;;5123066;27;45344;-73
2023/08/13 06:33:03;;;;;;;;;4.00;4.00;;;;;;;;5122341;27;45408;-73
2023/08/13 06:35:28;;;;;;;;;4.67;4.67;;;;;;;;5104076;27;45350;-72
2023/08/13 06:37:53;;;;;;;;;4.00;4.00;;;;;;;;5118293;27;45165;-73
2023/08/13 06:40:19;;;;;;;;;5.00;5.00;;;;;;;;5111112;27;46539;-72
2023/08/13 06:42:44;;;;;;;;;6.67;6.00;;;;;;;;5088720;27;45338;-72
2023/08/13 06:45:09;;;;;;;;;6.00;5.00;;;;;;;;5098132;27;45559;-72
2023/08/13 06:47:34;;;;;;;;;7.00;4.67;;;;;;;;5087573;27;45999;-73
2023/08/13 06:50:00;;;;;;;;;3.00;3.00;;;;;;;;5083128;27;45410;-74
2023/08/13 06:52:25;;;;;;;;;5.67;5.67;;;;;;;;5080811;27;45340;-73
2023/08/13 06:54:50;;;;;;;;;4.67;4.67;;;;;;;;5080092;28;45247;-74
2023/08/13 06:57:15;;;;;;;;;5.00;5.00;;;;;;;;5081266;27;45276;-75
2023/08/13 06:59:41;;;;;;;;;4.00;3.33;;;;;;;;5081080;27;46024;-74
2023/08/13 07:02:06;;;;;;;;;7.67;6.00;;;;;;;;5081083;28;45290;-74
2023/08/13 07:04:31;;;;;;;;;6.67;6.00;;;;;;;;5080810;28;45323;-75
2023/08/13 07:06:57;;;;;;;;;3.00;2.00;;;;;;;;5080912;27;45259;-75
2023/08/13 07:09:24;;;;;;;;;6.00;6.00;;;;;;;;5080831;27;46549;-74
2023/08/13 07:11:49;;;;;;;;;5.67;5.00;;;;;;;;5080760;27;45554;-75
2023/08/13 07:14:14;;;;;;;;;5.00;5.00;;;;;;;;5080944;27;45414;-74
2023/08/13 07:16:40;;;;;;;;;4.00;4.00;;;;;;;;5078721;28;46388;-75
2023/08/13 07:19:05;;;;;;;;;7.67;7.67;;;;;;;;5080450;27;45330;-74
2023/08/13 07:21:30;;;;;;;;;7.00;5.00;;;;;;;;5080643;28;45330;-74
2023/08/13 07:23:55;;;;;;;;;5.00;5.00;;;;;;;;5080827;27;45295;-73
2023/08/13 07:26:20;;;;;;;;;3.00;3.00;;;;;;;;5080576;27;45395;-73
2023/08/13 07:28:46;;;;;;;;;8.67;5.67;;;;;;;;5088378;27;45462;-73
2023/08/13 07:31:11;;;;;;;;;3.00;3.00;;;;;;;;5121732;27;45286;-72
2023/08/13 07:33:36;;;;;;;;;3.00;3.00;;;;;;;;5088715;27;45492;-73
2023/08/13 07:36:02;;;;;;;;;5.00;5.00;;;;;;;;5088011;27;45654;-72
2023/08/13 07:38:27;;;;;;;;;7.00;5.33;;;;;;;;5088955;27;47414;-73
2023/08/13 07:40:53;;;;;;;;;6.67;4.00;;;;;;;;5090345;27;45442;-73
2023/08/13 07:43:18;;;;;;;;;4.67;4.67;;;;;;;;5100880;27;45350;-72
2023/08/13 07:45:43;;;;;;;;;7.00;4.00;;;;;;;;5100928;27;45372;-72
2023/08/13 07:48:09;;;;;;;;;7.00;6.00;;;;;;;;5100356;27;45216;-73
2023/08/13 07:50:34;;;;;;;;;5.00;5.00;;;;;;;;5101756;27;45350;-73
2023/08/13 07:52:59;;;;;;;;;4.00;4.00;;;;;;;;5119604;27;45445;-74
2023/08/13 07:55:24;;;;;;;;;6.33;6.33;;;;;;;;5122909;27;45489;-75
2023/08/13 07:57:50;;;;;;;;;6.00;5.00;;;;;;;;5141544;27;46351;-73
2023/08/13 08:00:16;;;;;;;;;4.00;4.00;;;;;;;;5141480;27;45335;-73
2023/08/13 08:02:42;;;;;;;;;5.00;5.00;;;;;;;;5131640;27;45317;-74
2023/08/13 08:05:08;;;;;;;;;5.33;4.00;;;;;;;;5120536;27;45352;-73
2023/08/13 08:07:33;;;;;;;;;4.33;4.33;;;;;;;;5120453;27;45212;-74
2023/08/13 08:09:58;;;;;;;;;7.00;5.00;;;;;;;;5120851;27;45215;-74
2023/08/13 08:12:23;;;;;;;;;5.00;4.33;;;;;;;;5121169;27;45263;-73
2023/08/13 08:14:48;;;;;;;;;6.00;4.00;;;;;;;;5120782;27;45379;-73
2023/08/13 08:17:14;;;;;;;;;3.33;3.00;;;;;;;;5120014;27;45422;-75
2023/08/13 08:19:39;;;;;;;;;6.00;5.67;;;;;;;;5120161;27;45327;-75
2023/08/13 08:22:04;;;;;;;;;4.00;4.00;;;;;;;;5120882;27;45235;-74
2023/08/13 08:24:29;;;;;;;;;3.33;3.33;;;;;;;;5101892;27;45827;-75
2023/08/13 08:26:54;;;;;;;;;4.00;3.67;;;;;;;;5120549;27;47272;-77
2023/08/13 08:29:20;;;;;;;;;6.00;4.00;;;;;;;;5133483;27;45451;-76
2023/08/13 08:31:45;;;;;;;;;9.00;6.00;;;;;;;;5123970;27;45300;-75
2023/08/13 08:34:10;;;;;;;;;4.33;4.00;;;;;;;;5124103;27;45302;-76
2023/08/13 08:36:35;;;;;;;;;7.00;3.33;;;;;;;;5120883;27;47245;-76
2023/08/13 08:39:00;;;;;;;;;7.00;5.33;;;;;;;;5141245;27;45297;-75
2023/08/13 08:41:31;;;;;;;;;6.33;4.67;;;;;;;;5122779;27;45442;-75
2023/08/13 08:43:58;;;;;;;;;5.00;3.33;;;;;;;;5123906;27;45405;-75
2023/08/13 08:46:26;;;;;;;;;4.00;3.00;;;;;;;;5123664;27;46197;-75
2023/08/13 08:48:51;;;;;;;;;3.00;3.00;;;;;;;;5104081;27;45381;-75
2023/08/13 08:51:17;;;;;;;;;5.00;5.00;;;;;;;;5116401;27;45325;-75
2023/08/13 08:53:43;;;;;;;;;4.00;3.33;;;;;;;;5110443;27;45299;-75
2023/08/13 08:56:08;;;;;;;;;3.00;3.00;;;;;;;;5128011;27;45459;-75
2023/08/13 08:58:33;;;;;;;;;5.00;5.00;;;;;;;;5123021;27;45308;-75
2023/08/13 09:01:02;;;;;;;;;3.33;3.00;;;;;;;;5142131;27;45351;-75
2023/08/13 09:03:27;;;;;;;;;3.00;3.00;;;;;;;;5110935;27;46251;-75
2023/08/13 09:05:52;;;;;;;;;2.33;2.33;;;;;;;;5123269;27;46211;-74
2023/08/13 09:08:19;;;;;;;;;1.67;1.67;;;;;;;;5123621;27;45332;-76
2023/08/13 09:10:44;;;;;;;;;1.00;1.00;;;;;;;;5123682;27;45479;-75
2023/08/13 09:13:10;;;;;;;;;2.67;2.67;;;;;;;;5123671;27;45325;-76
2023/08/13 09:15:53;;;;;;;;;2.00;2.00;;;;;;;;5105133;27;48262;-76
2023/08/13 09:18:18;;;;;;;;;2.67;2.67;;;;;;;;5123376;27;45202;-75
2023/08/13 09:20:44;;;;;;;;;3.67;3.67;;;;;;;;5123785;27;45265;-76
2023/08/13 09:23:10;;;;;;;;;9.00;7.00;;;;;;;;5123713;27;45336;-76
2023/08/13 09:25:35;;;;;;;;;5.33;5.33;;;;;;;;5123422;27;45990;-75
2023/08/13 09:28:01;;;;;;;;;5.67;4.33;;;;;;;;5104647;27;45341;-75
2023/08/13 09:30:31;;;;;;;;;6.33;4.67;;;;;;;;5123480;27;45211;-77
2023/08/13 09:32:59;;;;;;;;;5.00;4.00;;;;;;;;5104688;27;46169;-76
2023/08/13 09:35:25;;;;;;;;;3.33;3.33;;;;;;;;5103369;27;46056;-76
2023/08/13 09:37:51;;;;;;;;;3.67;3.33;;;;;;;;5102653;27;45308;-76
2023/08/13 09:40:16;;;;;;;;;2.67;2.67;;;;;;;;5101203;27;45614;-76
2023/08/13 09:42:42;;;;;;;;;12.00;11.00;;;;;;;;5102082;27;45879;-76
2023/08/13 09:45:09;;;;;;;;;10.67;10.00;;;;;;;;5120840;27;46661;-78
2023/08/13 09:47:35;;;;;;;;;1.25;1.25;;;;;;;;5120944;27;45447;-76
2023/08/13 09:50:01;;;;;;;;;2.00;2.00;;;;;;;;5121159;27;45338;-78
2023/08/13 09:52:27;;;;;;;;;2.00;2.00;;;;;;;;5121204;27;45385;-79
2023/08/13 09:54:56;;;;;;;;;1.50;1.00;;;;;;;;5121962;27;45548;-78
2023/08/13 09:57:22;;;;;;;;;0.25;0.25;;;;;;;;5104532;27;45306;-78
2023/08/13 09:59:48;;;;;;;;;2.00;2.00;;;;;;;;5123330;27;45302;-78
2023/08/13 10:02:14;;;;;;;;;3.00;3.00;;;;;;;;5122946;27;45692;-76
2023/08/13 10:04:40;;;;;;;;;4.00;3.00;;;;;;;;5122542;27;45281;-78
2023/08/13 10:07:05;;;;;;;;;2.00;2.00;;;;;;;;5123054;27;45226;-78
2023/08/13 10:09:31;;;;;;;;;2.33;2.00;;;;;;;;5123154;27;45363;-76
2023/08/13 10:11:57;;;;;;;;;2.00;2.00;;;;;;;;5124040;27;45413;-79
2023/08/13 10:14:23;;;;;;;;;1.75;1.75;;;;;;;;5122788;27;45279;-79
2023/08/13 10:16:48;;;;;;;;;2.25;1.00;;;;;;;;5122732;27;45326;-78
2023/08/13 10:19:15;;;;;;;;;1.50;1.50;;;;;;;;5122689;27;45192;-79
2023/08/13 10:21:40;;;;;;;;;4.00;1.00;;;;;;;;5122958;27;45362;-78
2023/08/13 10:24:08;;;;;;;;;0.00;0.00;;;;;;;;5104015;27;47180;-78
2023/08/13 10:26:34;;;;;;;;;1.00;1.00;;;;;;;;5104732;27;45681;-78
2023/08/13 10:28:59;;;;;;;;;4.67;4.67;;;;;;;;5128966;27;45293;-78
2023/08/13 10:31:25;;;;;;;;;2.00;2.00;;;;;;;;5143462;27;45345;-78
2023/08/13 10:34:01;;;;;;;;;2.67;2.67;;;;;;;;5143222;27;45355;-79
2023/08/13 10:37:05;;;;;;;;;4.67;2.00;;;;;;;;5143200;27;45277;-76
2023/08/13 10:39:33;;;;;;;;;1.50;1.50;;;;;;;;5038806;28;45418;-77
2023/08/13 10:41:59;;;;;;;;;3.25;3.25;;;;;;;;5038640;28;45496;-76
2023/08/13 10:44:28;;;;;;;;;2.25;0.75;;;;;;;;5061595;27;46041;-76
2023/08/13 10:46:54;;;;;;;;;3.00;1.50;;;;;;;;5122205;27;45358;-77
2023/08/13 10:49:19;;;;;;;;;1.00;1.00;;;;;;;;5122283;27;45218;-76
2023/08/13 10:51:47;;;;;;;;;3.00;2.00;;;;;;;;5117145;27;45302;-75
2023/08/13 10:54:13;;;;;;;;;2.00;2.00;;;;;;;;5109265;27;46673;-77
2023/08/13 10:56:42;;;;;;;;;3.75;1.50;;;;;;;;5107562;27;45347;-75
2023/08/13 10:59:07;;;;;;;;;4.00;4.00;;;;;;;;5082207;27;45459;-75
2023/08/13 11:01:32;;;;;;;;;3.75;2.50;;;;;;;;5101126;27;45554;-75
2023/08/13 11:03:57;;;;;;;;;7.00;7.00;;;;;;;;5104991;27;46123;-75
2023/08/13 11:06:23;;;;;;;;;8.33;7.33;;;;;;;;5108389;27;45410;-76
2023/08/13 11:08:49;;;;;;;;;6.00;5.00;;;;;;;;5101434;27;45358;-77
2023/08/13 11:11:18;;;;;;;;;4.25;3.50;;;;;;;;5088354;27;45878;-76
2023/08/13 11:13:44;;;;;;;;;2.00;2.00;;;;;;;;5121385;27;46534;-76
2023/08/13 11:16:10;;;;;;;;;4.75;3.00;;;;;;;;5119330;27;45384;-76
2023/08/13 11:18:35;;;;;;;;;3.75;2.50;;;;;;;;5121442;27;45348;-76
2023/08/13 11:21:00;;;;;;;;;2.00;1.00;;;;;;;;5095851;27;47177;-75
2023/08/13 11:23:26;;;;;;;;;2.25;1.00;;;;;;;;5100543;27;46380;-75
2023/08/13 11:25:52;;;;;;;;;3.25;2.25;;;;;;;;5100685;27;45305;-76
2023/08/13 11:28:27;;;;;;;;;0.50;0.50;;;;;;;;5100590;27;45386;-75
2023/08/13 11:30:54;;;;;;;;;3.50;3.50;;;;;;;;5141711;27;45399;-77
2023/08/13 11:33:20;;;;;;;;;2.00;1.25;;;;;;;;5141673;27;45293;-76
2023/08/13 11:35:45;;;;;;;;;4.00;2.00;;;;;;;;5137005;27;45196;-76
2023/08/13 11:38:11;;;;;;;;;1.00;1.00;;;;;;;;5114020;27;45415;-77
2023/08/13 11:40:37;;;;;;;;;2.00;1.00;;;;;;;;5112253;27;45523;-76
2023/08/13 11:43:03;;;;;;;;;1.75;1.75;;;;;;;;5117918;27;45354;-77
2023/08/13 11:45:30;;;;;;;;;1.00;1.00;;;;;;;;5119790;27;45438;-76
2023/08/13 11:48:08;;;;;;;;;2.00;2.00;;;;;;;;5119613;27;45349;-77
2023/08/13 11:50:33;;;;;;;;;2.25;1.75;;;;;;;;5099941;27;45987;-77
2023/08/13 11:53:02;;;;;;;;;2.33;1.67;;;;;;;;5116946;27;45488;-76
2023/08/13 11:55:28;;;;;;;;;3.00;2.00;;;;;;;;5108591;27;45293;-78
2023/08/13 11:57:55;;;;;;;;;3.50;3.00;;;;;;;;5109117;27;45397;-76
2023/08/13 12:00:20;;;;;;;;;3.00;2.00;;;;;;;;5106435;27;45397;-78
2023/08/13 12:02:47;;;;;;;;;2.00;2.00;;;;;;;;5111529;27;45337;-78
2023/08/13 12:05:12;;;;;;;;;2.00;2.00;;;;;;;;5089366;27;45968;-77
2023/08/13 12:07:40;;;;;;;;;4.25;3.25;;;;;;;;5107039;27;45679;-79
2023/08/13 12:10:06;;;;;;;;;3.50;3.50;;;;;;;;5101949;27;45701;-77
2023/08/13 12:12:31;;;;;;;;;3.00;3.00;;;;;;;;5110838;27;45206;-76
2023/08/13 12:14:57;;;;;;;;;3.00;3.00;;;;;;;;5112699;27;45460;-76
2023/08/13 12:17:22;;;;;;;;;2.00;2.00;;;;;;;;5103841;27;45476;-75
2023/08/13 12:19:47;;;;;;;;;4.50;3.25;;;;;;;;5120255;27;45309;-75
2023/08/13 12:22:12;;;;;;;;;1.75;1.75;;;;;;;;5119183;27;45355;-76
2023/08/13 12:24:37;;;;;;;;;2.75;2.75;;;;;;;;5130984;27;45318;-75
2023/08/13 12:27:03;;;;;;;;;2.00;2.00;;;;;;;;5103940;27;45301;-77
2023/08/13 12:29:28;;;;;;;;;3.00;3.00;;;;;;;;5129917;27;45160;-72
2023/08/13 12:31:53;;;;;;;;;2.75;2.75;;;;;;;;5134196;27;45283;-73
2023/08/13 12:34:18;;;;;;;;;3.00;3.00;;;;;;;;5120075;27;45282;-71
2023/08/13 12:36:44;;;;;;;;;3.75;3.75;;;;;;;;5116417;27;45214;-72
2023/08/13 12:39:09;;;;;;;;;3.33;3.33;;;;;;;;5098774;27;45254;-71
2023/08/13 12:41:34;;;;;;;;;4.67;4.00;;;;;;;;5106993;27;45403;-71
2023/08/13 12:43:59;;;;;;;;;3.00;3.00;;;;;;;;5120203;27;45353;-72
2023/08/13 12:46:24;;;;;;;;;1.00;0.00;;;;;;;;5120236;27;45250;-72
2023/08/13 12:48:50;;;;;;;;;3.00;3.00;;;;;;;;5119425;27;45358;-71
2023/08/13 12:51:15;;;;;;;;;4.75;3.25;;;;;;;;5111622;27;45464;-71
2023/08/13 12:53:40;;;;;;;;;5.00;5.00;;;;;;;;5119618;27;45402;-71
2023/08/13 12:56:05;;;;;;;;;2.50;2.50;;;;;;;;5119909;27;45397;-72
2023/08/13 12:58:31;;;;;;;;;4.00;4.00;;;;;;;;5119063;27;45381;-73
2023/08/13 13:00:57;;;;;;;;;4.00;2.50;;;;;;;;5098889;27;47109;-72
2023/08/13 13:03:22;;;;;;;;;3.00;1.75;;;;;;;;5097976;27;45666;-71
2023/08/13 13:05:47;;;;;;;;;2.75;2.75;;;;;;;;5119415;27;45349;-72
2023/08/13 13:08:13;;;;;;;;;3.67;3.67;;;;;;;;5119554;27;45556;-74
2023/08/13 13:10:38;;;;;;;;;3.00;3.00;;;;;;;;5100141;27;47542;-73
2023/08/13 13:13:03;;;;;;;;;4.00;2.75;;;;;;;;5117546;27;45480;-72
2023/08/13 13:15:28;;;;;;;;;4.00;4.00;;;;;;;;5096592;27;46353;-74
2023/08/13 13:17:53;;;;;;;;;3.75;2.50;;;;;;;;5116757;27;45498;-73
2023/08/13 13:20:19;;;;;;;;;4.00;2.00;;;;;;;;5120783;27;45375;-73
2023/08/13 13:22:44;;;;;;;;;2.00;2.00;;;;;;;;5117064;27;45488;-73
2023/08/13 13:25:10;;;;;;;;;2.00;2.00;;;;;;;;5110917;27;45542;-72
2023/08/13 13:27:35;;;;;;;;;2.00;2.00;;;;;;;;5110059;27;45358;-76
2023/08/13 13:30:05;;;;;;;;;3.00;3.00;;;;;;;;5115509;27;46277;-76
2023/08/13 13:32:30;;;;;;;;;2.75;2.50;;;;;;;;5116424;27;45317;-75
2023/08/13 13:34:55;;;;;;;;;4.00;3.00;;;;;;;;5114839;27;45279;-76
2023/08/13 13:37:20;;;;;;;;;3.00;3.00;;;;;;;;5105857;27;45325;-76
2023/08/13 13:39:45;;;;;;;;;2.25;2.25;;;;;;;;5113214;27;46363;-75
2023/08/13 13:42:11;;;;;;;;;3.25;3.25;;;;;;;;5112909;27;45408;-76
2023/08/13 13:44:37;;;;;;;;;5.50;4.25;;;;;;;;5113325;27;45305;-76
2023/08/13 13:47:02;;;;;;;;;3.75;3.75;;;;;;;;5112214;27;45295;-76
2023/08/13 13:49:27;;;;;;;;;6.00;4.75;;;;;;;;5110853;27;45444;-76
2023/08/13 13:51:53;;;;;;;;;3.00;3.00;;;;;;;;5113109;27;45333;-76
2023/08/13 13:54:18;;;;;;;;;3.25;3.00;;;;;;;;5112067;27;45372;-75
2023/08/13 13:56:44;;;;;;;;;3.25;2.25;;;;;;;;5098178;27;45965;-77
2023/08/13 13:59:09;;;;;;;;;3.00;3.00;;;;;;;;5112078;27;45300;-77
2023/08/13 14:01:34;;;;;;;;;2.50;2.50;;;;;;;;5114051;27;45362;-76
2023/08/13 14:03:59;;;;;;;;;2.25;2.25;;;;;;;;5093899;27;45326;-75
2023/08/13 14:06:24;;;;;;;;;4.67;4.67;;;;;;;;5112090;27;45256;-75
2023/08/13 14:08:49;;;;;;;;;2.00;2.00;;;;;;;;5111471;27;46266;-75
2023/08/13 14:11:15;;;;;;;;;1.50;1.50;;;;;;;;5105087;27;45394;-76
2023/08/13 14:13:40;;;;;;;;;3.00;3.00;;;;;;;;5102003;27;45290;-76
2023/08/13 14:16:05;;;;;;;;;4.50;3.25;;;;;;;;5109488;27;45323;-75
2023/08/13 14:18:30;;;;;;;;;4.75;3.75;;;;;;;;5112398;27;45408;-75
2023/08/13 14:20:55;;;;;;;;;3.00;2.00;;;;;;;;5105774;27;45331;-76
2023/08/13 14:23:21;;;;;;;;;2.00;2.00;;;;;;;;5102260;27;45336;-74
2023/08/13 14:25:46;;;;;;;;;4.50;3.50;;;;;;;;5101937;27;45282;-75
2023/08/13 14:28:11;;;;;;;;;3.50;3.00;;;;;;;;5100891;27;45345;-75
2023/08/13 14:30:36;;;;;;;;;2.67;2.67;;;;;;;;5122852;27;46121;-75
2023/08/13 14:33:01;;;;;;;;;4.50;3.25;;;;;;;;5126507;27;45402;-76
2023/08/13 14:35:27;;;;;;;;;2.00;2.00;;;;;;;;5112100;27;45388;-75